ADDS METAR Data INFO
IDs: Format: Raw Decoded Include TAF

Data at: 1958 UTC 15 Dec 2017

KLGC 151935Z AUTO 33010KT 10SM CLR 06/M03 A3012 RMK AO2 T00641035
KLGC 151915Z AUTO 31012KT 10SM SCT120 07/M03 A3012 RMK AO2 T00671034
KLGC 151855Z AUTO 33009KT 10SM SCT120 07/M03 A3012 RMK AO2 T00741030
KLGC 151835Z AUTO 30009G14KT 10SM CLR 07/M03 A3011 RMK AO2 T00701030
KLGC 151815Z AUTO 31010G15KT 10SM CLR 08/M03 A3013 RMK AO2 T00751027
KLGC 151755Z AUTO 32009KT 10SM CLR 07/M03 A3012 RMK AO2 T00731026 10082 20035
KLGC 151735Z AUTO 31012KT 10SM CLR 08/M02 A3012 RMK AO2 T00811019
KLGC 151715Z AUTO 31010G15KT 10SM CLR 08/M02 A3012 RMK AO2 T00751024
KLGC 151655Z AUTO 33009KT 10SM CLR 07/M02 A3012 RMK AO2 T00671020
KLGC 151635Z AUTO 32014G17KT 10SM CLR 07/M02 A3012 RMK AO2 T00671019
KLGC 151615Z AUTO 34008KT 10SM CLR 06/M01 A3012 RMK AO2 T00621009
KLGC 151555Z AUTO 31006G09KT 10SM CLR 06/00 A3012 RMK AO2 T00560001
KLGC 151535Z AUTO 34004KT 10SM CLR 05/00 A3012 RMK AO2 T00520000
KLGC 151515Z AUTO 32005KT 10SM CLR 05/00 A3010 RMK AO2 T00520001
KLGC 151455Z AUTO 32005KT 10SM CLR 05/00 A3010 RMK AO2 T00500002
KLGC 151435Z AUTO 36005KT 10SM CLR 05/00 A3009 RMK AO2 T00461001
KLGC 151415Z AUTO 34005KT 10SM CLR 05/00 A3009 RMK AO2 T00460000
KLGC 151355Z AUTO 33005KT 10SM CLR 05/01 A3009 RMK AO2 T00450006
KLGC 151335Z AUTO 00000KT 10SM CLR 05/01 A3007 RMK AO2 T00450014
KLGC 151315Z AUTO 00000KT 10SM CLR 05/02 A3007 RMK AO2 T00450022
KLGC 151255Z AUTO 00000KT 10SM CLR 04/02 A3006 RMK AO2 T00400022
KLGC 151235Z AUTO 35003KT 10SM CLR 05/02 A3006 RMK AO2 T00460020
KLGC 151215Z AUTO 36003KT 10SM CLR 05/02 A3005 RMK AO2 T00460020
KLGC 151155Z AUTO 35003KT 10SM CLR 04/02 A3004 RMK AO2 T00370023 10037 20005
KLGC 151135Z AUTO 00000KT 10SM CLR 01/00 A3003 RMK AO2 T00070004
KLGC 151115Z AUTO 00000KT 10SM CLR 01/00 A3003 RMK AO2 T00050002
KLGC 151055Z AUTO 00000KT 10SM CLR 01/01 A3001 RMK AO2 T00090006
KLGC 151035Z AUTO 00000KT 10SM CLR 01/01 A3001 RMK AO2 T00070005
KLGC 151015Z AUTO 00000KT 7SM CLR 01/00 A3001 RMK AO2 T00060002
KLGC 150955Z AUTO 00000KT 10SM CLR 01/01 A3001 RMK AO2 T00100006
KLGC 150935Z AUTO 00000KT 10SM CLR 01/01 A3001 RMK AO2 T00090006
KLGC 150915Z AUTO 00000KT 10SM CLR 01/01 A3001 RMK AO2 T00120010
KLGC 150855Z AUTO 00000KT 10SM CLR 01/01 A3001 RMK AO2 T00100008
KLGC 150835Z AUTO 00000KT 10SM CLR 02/01 A3001 RMK AO2 T00160013
KLGC 150815Z AUTO 00000KT 10SM CLR 02/01 A3001 RMK AO2 T00160013
KLGC 150755Z AUTO 00000KT 7SM CLR 01/01 A3001 RMK AO2 T00140011
KLGC 150735Z AUTO 00000KT 10SM CLR 02/02 A3000 RMK AO2 T00200018
KLGC 150715Z AUTO 00000KT 10SM CLR 02/02 A3001 RMK AO2 T00210020
KLGC 150655Z AUTO 00000KT 10SM CLR 02/02 A3000 RMK AO2 T00200017
KLGC 150635Z AUTO 00000KT 10SM CLR 03/02 A3000 RMK AO2 T00270024
KLGC 150615Z AUTO 00000KT 10SM CLR 03/02 A3000 RMK AO2 T00260024
KLGC 150555Z AUTO 00000KT 10SM CLR 02/02 A3001 RMK AO2 T00220020 10070 20022 401361003
KLGC 150535Z AUTO 00000KT 10SM CLR 03/03 A3001 RMK AO2 T00340031
KLGC 150515Z AUTO 00000KT 10SM CLR 03/03 A3002 RMK AO2 T00290026
KLGC 150455Z AUTO 00000KT 10SM CLR 03/03 A3002 RMK AO2 T00310029
KLGC 150435Z AUTO 00000KT 10SM CLR 04/04 A3002 RMK AO2 T00380035
KLGC 150415Z AUTO 00000KT 10SM CLR 04/04 A3002 RMK AO2 T00400036
KLGC 150355Z AUTO 00000KT 10SM CLR 04/04 A3002 RMK AO2 T00410038
KLGC 150335Z AUTO 00000KT 10SM CLR 04/04 A3001 RMK AO2 T00430040
KLGC 150315Z AUTO 00000KT 10SM CLR 05/04 A3001 RMK AO2 T00450042
KLGC 150255Z AUTO 00000KT 10SM CLR 05/04 A3001 RMK AO2 T00450043
KLGC 150235Z AUTO 00000KT 10SM CLR 05/04 A3001 RMK AO2 T00460043
KLGC 150215Z AUTO 00000KT 10SM CLR 05/04 A3000 RMK AO2 T00500044
KLGC 150155Z AUTO 00000KT 10SM CLR 05/05 A3000 RMK AO2 T00470045
KLGC 150130Z AUTO 00000KT 10SM CLR 05/05 A3000 RMK AO2 T00510046
KLGC 150115Z AUTO 00000KT 10SM CLR 06/05 A3000 RMK AO2 T00560045
KLGC 150055Z AUTO 00000KT 10SM CLR 06/05 A2999 RMK AO2 T00570047
KLGC 150035Z AUTO 00000KT 10SM CLR 06/05 A2999 RMK AO2 T00600048
KLGC 150015Z AUTO 00000KT 10SM CLR 07/05 A2998 RMK AO2 T00660047
KLGC 142355Z AUTO 00000KT 10SM CLR 07/04 A2999 RMK AO2 T00690042 10136 20067
KLGC 142335Z AUTO 00000KT 10SM CLR 07/05 A2999 RMK AO2 T00720047
KLGC 142315Z AUTO 00000KT 10SM CLR 08/05 A2997 RMK AO2 T00790045
KLGC 142255Z AUTO 00000KT 10SM CLR 08/05 A2996 RMK AO2 T00790045
KLGC 142235Z AUTO 00000KT 10SM 08/05 A2996 RMK AO2 T00830046 PWINO
KLGC 142215Z AUTO 00000KT 10SM CLR 09/05 A2996 RMK AO2 T00920051
KLGC 142155Z AUTO 00000KT 10SM CLR 12/04 A2996 RMK AO2 T01160036
KLGC 142135Z AUTO 00000KT 10SM CLR 13/03 A2996 RMK AO2 T01250028
KLGC 142115Z AUTO 00000KT 10SM CLR 13/03 A2996 RMK AO2 T01290027
KLGC 142055Z AUTO 00000KT 10SM CLR 13/03 A2995 RMK AO2 T01310027
KLGC 142035Z AUTO 28004KT 10SM CLR 13/03 A2996 RMK AO2 T01320029
KLGC 142015Z AUTO 29005KT 10SM CLR 13/02 A2996 RMK AO2 T01320024
KLGC 141955Z AUTO 22003KT 10SM CLR 13/02 A2995 RMK AO2 T01320020
KLGC 141935Z AUTO 25003KT 10SM CLR 13/02 A2994 RMK AO2 T01310020
KLGC 141915Z AUTO 26004KT 10SM CLR 13/02 A2994 RMK AO2 T01310018
KLGC 141855Z AUTO 00000KT 10SM CLR 13/02 A2995 RMK AO2 T01290017
KLGC 141835Z AUTO 24004KT 10SM CLR 13/02 A2995 RMK AO2 T01280019
KLGC 141815Z AUTO 22004KT 10SM CLR 12/02 A2995 RMK AO2 T01180020
KLGC 141755Z AUTO 00000KT 10SM CLR 11/02 A2996 RMK AO2 T01120020 10112 21003
KLGC 141735Z AUTO 26004KT 10SM CLR 11/02 A2997 RMK AO2 T01070018
KLGC 141715Z AUTO 22005KT 10SM CLR 11/02 A2997 RMK AO2 T01050020
KLGC 141655Z AUTO 22005KT 10SM CLR 10/02 A2998 RMK AO2 T01020019
KLGC 141635Z AUTO 24004KT 10SM CLR 11/02 A2998 RMK AO2 T01060017
KLGC 141615Z AUTO 22005KT 10SM CLR 10/03 A2999 RMK AO2 T01010026
KLGC 141555Z AUTO 20005KT 10SM CLR 10/03 A2999 RMK AO2 T00950026
KLGC 141535Z AUTO 19003KT 10SM CLR 08/02 A2998 RMK AO2 T00820024
KLGC 141515Z AUTO 22003KT 10SM CLR 07/02 A2998 RMK AO2 T00700024
KLGC 141455Z AUTO 18003KT 10SM CLR 06/03 A2996 RMK AO2 T00580032
KLGC 141435Z AUTO 00000KT 10SM CLR 03/03 A2995 RMK AO2 T00330030
KLGC 141415Z AUTO 00000KT 10SM CLR 03/02 A2994 RMK AO2 T00250021
KLGC 141355Z AUTO 00000KT 10SM CLR 02/02 A2994 RMK AO2 T00200017
KLGC 141335Z AUTO 00000KT 10SM CLR 01/01 A2993 RMK AO2 T00090006
KLGC 141315Z AUTO 00000KT 10SM CLR 00/00 A2993 RMK AO2 T00020000
KLGC 141255Z AUTO 00000KT 10SM CLR 00/00 A2993 RMK AO2 T10021005
KLGC 141235Z AUTO 00000KT 10SM CLR 00/00 A2993 RMK AO2 T00001001
KLGC 141215Z AUTO 00000KT 10SM CLR 00/00 A2993 RMK AO2 T00001002
KLGC 141155Z AUTO 00000KT 10SM CLR 00/00 A2992 RMK AO2 T10011004 10065 21001
KLGC 141135Z AUTO 00000KT 10SM CLR 00/00 A2992 RMK AO2 T00040001
KLGC 141115Z AUTO 00000KT 10SM CLR 00/00 A2991 RMK AO2 T00021001
KLGC 141055Z AUTO 00000KT 10SM CLR 02/00 A2991 RMK AO2 T00150003
KLGC 141035Z AUTO 00000KT 10SM CLR 02/00 A2990 RMK AO2 T00190002
KLGC 141015Z AUTO 00000KT 10SM CLR 03/00 A2990 RMK AO2 T00270003
KLGC 140955Z AUTO 25003KT 10SM CLR 04/00 A2990 RMK AO2 T00430002
KLGC 140935Z AUTO 25004KT 10SM CLR 04/00 A2989 RMK AO2 T00440002
KLGC 140915Z AUTO 27004KT 10SM CLR 04/00 A2990 RMK AO2 T00350001
KLGC 140855Z AUTO 00000KT 10SM CLR 02/00 A2990 RMK AO2 T00171001
KLGC 140835Z AUTO 24003KT 10SM CLR 01/00 A2990 RMK AO2 T00061004
KLGC 140815Z AUTO 00000KT 10SM CLR 01/00 A2990 RMK AO2 T00131005